Estación Meteorológica Peña el Pijo (Robertgarden) [ 07/19/24 13:16:00 CEST ]

Fecha Hora Presion(HPa) Temp (°C) Humedad % Rocio (°C) Viento ( m/s) Direccion Lluvia 1Hora(mm) Lluvia 24H(mm) LLuvia Total(mm)
2008-Sep-01 01:05:19 1016.200 13.3 61 5.9         232.56
2008-Sep-01 02:05:16 1016.300 12.9 61 5.5         232.56
2008-Sep-01 03:05:11 1016.100 12.3 65 5.9         232.56
2008-Sep-01 04:05:15 1015.800 12.1 67 6.1         232.56
2008-Sep-01 05:05:21 1016.000 11.8 70 6.5         232.56
2008-Sep-01 06:05:32 1016.000 11.4 72 6.5         232.56
2008-Sep-01 07:05:12 1016.000 11.3 74 6.8         232.56
2008-Sep-01 08:05:14 1016.100 10.8 75 6.5         232.56
2008-Sep-01 09:05:16 1016.500 16.1 66 9.8         232.56
2008-Sep-01 10:05:16 1016.600 21.6 48 10.1         232.56
2008-Sep-01 11:05:16 1016.700 26.5 35 9.7         232.56
2008-Sep-01 12:05:26 1016.700 28.8 29 8.9         232.56
2008-Sep-01 13:05:15 1016.200 30.3 25 7.8         232.56
2008-Sep-01 14:05:14 1016.000 32.9 21 7.6 2.6 NE     232.56
2008-Sep-01 15:05:15 1015.500 31.2 21 6.2         232.56
2008-Sep-01 16:05:14 1015.000 28.8 23 5.4         232.56
2008-Sep-01 17:05:15 1014.300 28.9 25 6.7         232.56
2008-Sep-01 18:05:14 1014.300 27.3 30 8.2         232.56
2008-Sep-01 19:05:18 1014.300 25.6 38 10.2         232.56
2008-Sep-01 20:05:58 1014.800 23.9 46 11.5         232.56
2008-Sep-01 21:05:20 1015.100 22.1 54 12.3         232.56
2008-Sep-01 22:05:25 1015.700 20.3 56 11.2         232.56
2008-Sep-01 23:05:16 1016.200 17.8 63 10.6         232.56

Temperatura Máxima:32°    Temperatura Mínima:10°
Presión Máxima:1016.700 Hpa    Presión Mínima:1014.300 Hpa


Volver